sensor_id;sensor_type;location;lat;lon;timestamp;pressure;altitude;pressure_sealevel;temperature;humidity
29383;BME280;16365;51.598;7.668;2022-07-17T00:00:48;102008.75;;;22.15;34.14
29383;BME280;16365;51.598;7.668;2022-07-17T00:03:16;102012.66;;;22.11;33.94
29383;BME280;16365;51.598;7.668;2022-07-17T00:05:43;102011.78;;;22.06;34.14
29383;BME280;16365;51.598;7.668;2022-07-17T00:08:11;102011.63;;;21.99;34.30
29383;BME280;16365;51.598;7.668;2022-07-17T00:10:40;102009.13;;;21.94;34.38
29383;BME280;16365;51.598;7.668;2022-07-17T00:13:08;102004.22;;;21.91;34.26
29383;BME280;16365;51.598;7.668;2022-07-17T00:15:35;101994.06;;;21.87;34.24
29383;BME280;16365;51.598;7.668;2022-07-17T00:18:02;102004.84;;;21.81;34.48
29383;BME280;16365;51.598;7.668;2022-07-17T00:20:29;101995.47;;;21.77;34.45
29383;BME280;16365;51.598;7.668;2022-07-17T00:22:56;102013.16;;;21.74;34.48
29383;BME280;16365;51.598;7.668;2022-07-17T00:25:24;102006.19;;;21.68;34.73
29383;BME280;16365;51.598;7.668;2022-07-17T00:27:51;102010.13;;;21.63;34.96
29383;BME280;16365;51.598;7.668;2022-07-17T00:30:18;102001.97;;;21.58;35.00
29383;BME280;16365;51.598;7.668;2022-07-17T00:32:45;102001.06;;;21.54;34.95
29383;BME280;16365;51.598;7.668;2022-07-17T00:35:12;102003.00;;;21.50;34.85
29383;BME280;16365;51.598;7.668;2022-07-17T00:37:47;102006.94;;;21.45;35.26
29383;BME280;16365;51.598;7.668;2022-07-17T00:40:16;101996.84;;;21.44;34.46
29383;BME280;16365;51.598;7.668;2022-07-17T00:42:44;102008.13;;;21.44;34.85
29383;BME280;16365;51.598;7.668;2022-07-17T00:45:12;102000.34;;;21.38;34.84
29383;BME280;16365;51.598;7.668;2022-07-17T00:50:15;102004.88;;;21.26;35.14
29383;BME280;16365;51.598;7.668;2022-07-17T00:52:42;101993.91;;;21.21;35.36
29383;BME280;16365;51.598;7.668;2022-07-17T00:55:10;101999.81;;;21.16;35.37
29383;BME280;16365;51.598;7.668;2022-07-17T00:58:01;102000.94;;;21.12;35.86
29383;BME280;16365;51.598;7.668;2022-07-17T01:00:30;102006.53;;;21.08;35.62
29383;BME280;16365;51.598;7.668;2022-07-17T01:02:56;101999.16;;;21.03;35.90
29383;BME280;16365;51.598;7.668;2022-07-17T01:05:23;102002.28;;;20.98;35.89
29383;BME280;16365;51.598;7.668;2022-07-17T01:07:50;102001.38;;;20.94;35.52
29383;BME280;16365;51.598;7.668;2022-07-17T01:10:18;102004.47;;;20.89;35.98
29383;BME280;16365;51.598;7.668;2022-07-17T01:12:46;102016.09;;;20.88;36.22
29383;BME280;16365;51.598;7.668;2022-07-17T01:15:14;102010.75;;;20.83;36.47
29383;BME280;16365;51.598;7.668;2022-07-17T01:17:43;102008.69;;;20.79;36.41
29383;BME280;16365;51.598;7.668;2022-07-17T01:20:11;102007.78;;;20.75;36.33
29383;BME280;16365;51.598;7.668;2022-07-17T01:22:50;102010.06;;;20.70;36.82
29383;BME280;16365;51.598;7.668;2022-07-17T01:25:22;102010.06;;;20.70;36.84
29383;BME280;16365;51.598;7.668;2022-07-17T01:27:50;102010.41;;;20.68;36.60
29383;BME280;16365;51.598;7.668;2022-07-17T01:30:18;102007.53;;;20.65;36.48
29383;BME280;16365;51.598;7.668;2022-07-17T01:32:45;102007.41;;;20.61;36.48
29383;BME280;16365;51.598;7.668;2022-07-17T01:35:13;102012.16;;;20.57;36.97
29383;BME280;16365;51.598;7.668;2022-07-17T01:37:41;102003.25;;;20.55;36.21
29383;BME280;16365;51.598;7.668;2022-07-17T01:40:09;102007.22;;;20.54;36.48
29383;BME280;16365;51.598;7.668;2022-07-17T01:42:41;102001.88;;;20.49;36.74
29383;BME280;16365;51.598;7.668;2022-07-17T01:45:09;102008.22;;;20.46;36.70
29383;BME280;16365;51.598;7.668;2022-07-17T01:47:36;102000.50;;;20.43;36.99
29383;BME280;16365;51.598;7.668;2022-07-17T01:50:04;102001.59;;;20.38;37.11
29383;BME280;16365;51.598;7.668;2022-07-17T01:52:34;101994.69;;;20.36;36.88
29383;BME280;16365;51.598;7.668;2022-07-17T01:55:00;101992.13;;;20.31;37.01
29383;BME280;16365;51.598;7.668;2022-07-17T01:57:27;101994.88;;;20.27;37.18
29383;BME280;16365;51.598;7.668;2022-07-17T01:59:53;102003.22;;;20.23;37.46
29383;BME280;16365;51.598;7.668;2022-07-17T02:02:20;101999.47;;;20.19;37.25
29383;BME280;16365;51.598;7.668;2022-07-17T02:04:46;102001.84;;;20.17;37.43
29383;BME280;16365;51.598;7.668;2022-07-17T02:07:13;102007.38;;;20.14;37.39
29383;BME280;16365;51.598;7.668;2022-07-17T02:09:41;101999.66;;;20.11;37.66
29383;BME280;16365;51.598;7.668;2022-07-17T02:12:07;101993.13;;;20.07;37.59
29383;BME280;16365;51.598;7.668;2022-07-17T02:14:34;101996.66;;;20.03;37.41
29383;BME280;16365;51.598;7.668;2022-07-17T02:17:02;101992.94;;;19.99;37.55
29383;BME280;16365;51.598;7.668;2022-07-17T02:19:29;102003.75;;;19.97;37.88
29383;BME280;16365;51.598;7.668;2022-07-17T02:21:55;101993.19;;;19.94;37.95
29383;BME280;16365;51.598;7.668;2022-07-17T02:24:22;101993.09;;;19.91;37.92
29383;BME280;16365;51.598;7.668;2022-07-17T02:26:48;101992.66;;;19.89;37.87
29383;BME280;16365;51.598;7.668;2022-07-17T02:29:15;101997.34;;;19.85;37.93
29383;BME280;16365;51.598;7.668;2022-07-17T02:31:42;101993.25;;;19.82;38.15
29383;BME280;16365;51.598;7.668;2022-07-17T02:34:09;101999.63;;;19.79;38.59
29383;BME280;16365;51.598;7.668;2022-07-17T02:36:35;101995.50;;;19.76;38.17
29383;BME280;16365;51.598;7.668;2022-07-17T02:39:02;102005.50;;;19.74;38.45
29383;BME280;16365;51.598;7.668;2022-07-17T02:41:29;102003.78;;;19.69;38.54
29383;BME280;16365;51.598;7.668;2022-07-17T02:43:56;101998.03;;;19.66;38.72
29383;BME280;16365;51.598;7.668;2022-07-17T02:46:22;102007.19;;;19.63;38.54
29383;BME280;16365;51.598;7.668;2022-07-17T02:48:49;102016.34;;;19.60;38.86
29383;BME280;16365;51.598;7.668;2022-07-17T02:51:15;102022.31;;;19.58;38.75
29383;BME280;16365;51.598;7.668;2022-07-17T02:53:42;102017.75;;;19.54;38.47
29383;BME280;16365;51.598;7.668;2022-07-17T02:56:08;102005.22;;;19.51;38.68
29383;BME280;16365;51.598;7.668;2022-07-17T02:58:35;102012.03;;;19.50;38.81
29383;BME280;16365;51.598;7.668;2022-07-17T03:01:02;102009.09;;;19.46;38.92
29383;BME280;16365;51.598;7.668;2022-07-17T03:03:28;102009.81;;;19.43;38.73
29383;BME280;16365;51.598;7.668;2022-07-17T03:05:55;102013.34;;;19.40;38.86
29383;BME280;16365;51.598;7.668;2022-07-17T03:08:22;102009.63;;;19.36;39.03
29383;BME280;16365;51.598;7.668;2022-07-17T03:10:48;102011.97;;;19.34;39.00
29383;BME280;16365;51.598;7.668;2022-07-17T03:13:15;102023.09;;;19.31;39.43
29383;BME280;16365;51.598;7.668;2022-07-17T03:15:42;102012.19;;;19.29;39.10
29383;BME280;16365;51.598;7.668;2022-07-17T03:18:08;102016.56;;;19.26;38.93
29383;BME280;16365;51.598;7.668;2022-07-17T03:20:35;102016.91;;;19.25;39.09
29383;BME280;16365;51.598;7.668;2022-07-17T03:23:01;102012.34;;;19.20;39.11
29383;BME280;16365;51.598;7.668;2022-07-17T03:25:28;102009.06;;;19.18;38.92
29383;BME280;16365;51.598;7.668;2022-07-17T03:27:55;102010.63;;;19.16;39.21
29383;BME280;16365;51.598;7.668;2022-07-17T03:30:21;102015.75;;;19.14;39.53
29383;BME280;16365;51.598;7.668;2022-07-17T03:32:48;102027.72;;;19.11;39.32
29383;BME280;16365;51.598;7.668;2022-07-17T03:35:14;102020.00;;;19.08;39.71
29383;BME280;16365;51.598;7.668;2022-07-17T03:37:41;102020.69;;;19.05;39.55
29383;BME280;16365;51.598;7.668;2022-07-17T03:40:10;102028.66;;;19.03;39.61
29383;BME280;16365;51.598;7.668;2022-07-17T03:42:37;102029.84;;;19.02;39.97
29383;BME280;16365;51.598;7.668;2022-07-17T03:45:04;102035.81;;;19.00;39.71
29383;BME280;16365;51.598;7.668;2022-07-17T03:47:30;102031.84;;;19.01;39.58
29383;BME280;16365;51.598;7.668;2022-07-17T03:49:57;102041.09;;;19.02;39.83
29383;BME280;16365;51.598;7.668;2022-07-17T03:52:23;102031.84;;;19.01;39.67
29383;BME280;16365;51.598;7.668;2022-07-17T03:54:50;102034.97;;;18.99;39.60
29383;BME280;16365;51.598;7.668;2022-07-17T03:57:17;102026.91;;;18.98;39.78
29383;BME280;16365;51.598;7.668;2022-07-17T03:59:43;102030.91;;;18.97;39.80
29383;BME280;16365;51.598;7.668;2022-07-17T04:02:10;102025.66;;;18.95;40.04
29383;BME280;16365;51.598;7.668;2022-07-17T04:04:36;102029.28;;;18.96;39.99
29383;BME280;16365;51.598;7.668;2022-07-17T04:07:03;102024.47;;;18.96;40.19
29383;BME280;16365;51.598;7.668;2022-07-17T04:09:29;102028.09;;;18.97;39.76
29383;BME280;16365;51.598;7.668;2022-07-17T04:11:56;102029.72;;;18.98;40.16
29383;BME280;16365;51.598;7.668;2022-07-17T04:14:22;102038.97;;;18.98;40.07
29383;BME280;16365;51.598;7.668;2022-07-17T04:16:49;102038.59;;;19.00;40.29
29383;BME280;16365;51.598;7.668;2022-07-17T04:19:16;102035.81;;;19.00;40.21
29383;BME280;16365;51.598;7.668;2022-07-17T04:21:42;102036.28;;;19.02;40.17
29383;BME280;16365;51.598;7.668;2022-07-17T04:24:09;102042.72;;;19.03;40.07
29383;BME280;16365;51.598;7.668;2022-07-17T04:26:35;102039.53;;;19.04;40.34
29383;BME280;16365;51.598;7.668;2022-07-17T04:29:02;102046.84;;;19.05;40.34
29383;BME280;16365;51.598;7.668;2022-07-17T04:31:30;102044.09;;;19.09;40.32
29383;BME280;16365;51.598;7.668;2022-07-17T04:33:57;102041.28;;;19.21;41.10
29383;BME280;16365;51.598;7.668;2022-07-17T04:36:24;102037.47;;;19.41;40.91
29383;BME280;16365;51.598;7.668;2022-07-17T04:38:50;102037.91;;;19.68;41.32
29383;BME280;16365;51.598;7.668;2022-07-17T04:41:17;102028.28;;;19.97;40.76
29383;BME280;16365;51.598;7.668;2022-07-17T04:43:43;102020.47;;;20.22;39.95
29383;BME280;16365;51.598;7.668;2022-07-17T04:46:11;102023.84;;;20.43;39.21
29383;BME280;16365;51.598;7.668;2022-07-17T04:48:38;102016.97;;;20.57;38.93
29383;BME280;16365;51.598;7.668;2022-07-17T04:51:04;102018.78;;;20.65;38.55
29383;BME280;16365;51.598;7.668;2022-07-17T04:53:31;102009.50;;;20.64;38.16
29383;BME280;16365;51.598;7.668;2022-07-17T04:55:58;102019.94;;;20.64;38.22
29383;BME280;16365;51.598;7.668;2022-07-17T04:58:24;102014.59;;;20.59;38.07
29383;BME280;16365;51.598;7.668;2022-07-17T05:00:51;102022.13;;;20.54;38.17
29383;BME280;16365;51.598;7.668;2022-07-17T05:03:17;102026.88;;;20.50;38.31
29383;BME280;16365;51.598;7.668;2022-07-17T05:05:44;102042.50;;;20.48;38.27
29383;BME280;16365;51.598;7.668;2022-07-17T05:08:10;102046.00;;;20.45;38.37
29383;BME280;16365;51.598;7.668;2022-07-17T05:10:37;102045.94;;;20.41;38.52
29383;BME280;16365;51.598;7.668;2022-07-17T05:13:04;102050.28;;;20.39;38.54
29383;BME280;16365;51.598;7.668;2022-07-17T05:15:31;102053.84;;;20.36;38.53
29383;BME280;16365;51.598;7.668;2022-07-17T05:18:05;102065.00;;;20.32;38.98
29383;BME280;16365;51.598;7.668;2022-07-17T05:20:32;102064.53;;;20.30;38.73
29383;BME280;16365;51.598;7.668;2022-07-17T05:22:58;102074.16;;;20.29;38.59
29383;BME280;16365;51.598;7.668;2022-07-17T05:25:25;102075.81;;;20.30;38.85
29383;BME280;16365;51.598;7.668;2022-07-17T05:27:52;102068.16;;;20.31;38.85
29383;BME280;16365;51.598;7.668;2022-07-17T05:30:18;102073.47;;;20.32;39.08
29383;BME280;16365;51.598;7.668;2022-07-17T05:32:45;102066.75;;;20.37;39.00
29383;BME280;16365;51.598;7.668;2022-07-17T05:35:11;102061.19;;;20.40;38.95
29383;BME280;16365;51.598;7.668;2022-07-17T05:37:38;102056.47;;;20.44;38.84
29383;BME280;16365;51.598;7.668;2022-07-17T05:40:05;102058.22;;;20.49;39.16
29383;BME280;16365;51.598;7.668;2022-07-17T05:42:32;102051.16;;;20.55;38.84
29383;BME280;16365;51.598;7.668;2022-07-17T05:45:01;102050.88;;;20.60;38.81
29383;BME280;16365;51.598;7.668;2022-07-17T05:47:28;102047.78;;;20.65;38.68
29383;BME280;16365;51.598;7.668;2022-07-17T05:49:55;102047.84;;;20.69;38.64
29383;BME280;16365;51.598;7.668;2022-07-17T05:52:21;102050.38;;;20.74;38.77
29383;BME280;16365;51.598;7.668;2022-07-17T05:54:48;102051.31;;;20.78;38.69
29383;BME280;16365;51.598;7.668;2022-07-17T05:57:14;102049.88;;;20.84;38.95
29383;BME280;16365;51.598;7.668;2022-07-17T05:59:41;102051.59;;;20.89;38.72
29383;BME280;16365;51.598;7.668;2022-07-17T06:02:08;102052.47;;;20.93;38.81
29383;BME280;16365;51.598;7.668;2022-07-17T06:04:34;102048.19;;;20.99;38.76
29383;BME280;16365;51.598;7.668;2022-07-17T06:07:01;102043.09;;;21.04;38.66
29383;BME280;16365;51.598;7.668;2022-07-17T06:09:28;102047.63;;;21.09;38.55
29383;BME280;16365;51.598;7.668;2022-07-17T06:11:54;102044.53;;;21.14;38.42
29383;BME280;16365;51.598;7.668;2022-07-17T06:14:21;102051.06;;;21.18;38.28
29383;BME280;16365;51.598;7.668;2022-07-17T06:16:48;102048.31;;;21.22;38.39
29383;BME280;16365;51.598;7.668;2022-07-17T06:19:14;102047.56;;;21.25;38.84
29383;BME280;16365;51.598;7.668;2022-07-17T06:21:41;102051.69;;;21.27;38.71
29383;BME280;16365;51.598;7.668;2022-07-17T06:24:07;102044.59;;;21.34;38.32
29383;BME280;16365;51.598;7.668;2022-07-17T06:26:34;102054.81;;;21.42;38.51
29383;BME280;16365;51.598;7.668;2022-07-17T06:29:01;102058.63;;;21.49;38.47
29383;BME280;16365;51.598;7.668;2022-07-17T06:31:27;102064.44;;;21.57;38.09
29383;BME280;16365;51.598;7.668;2022-07-17T06:33:55;102073.84;;;21.64;37.96
29383;BME280;16365;51.598;7.668;2022-07-17T06:36:21;102078.81;;;21.71;37.83
29383;BME280;16365;51.598;7.668;2022-07-17T06:38:48;102081.81;;;21.78;37.99
29383;BME280;16365;51.598;7.668;2022-07-17T06:41:14;102080.69;;;21.83;37.87
29383;BME280;16365;51.598;7.668;2022-07-17T06:43:41;102079.66;;;21.91;37.92
29383;BME280;16365;51.598;7.668;2022-07-17T06:46:07;102077.34;;;21.96;37.68
29383;BME280;16365;51.598;7.668;2022-07-17T06:48:34;102065.81;;;22.05;37.75
29383;BME280;16365;51.598;7.668;2022-07-17T06:51:00;102063.59;;;22.14;38.15
29383;BME280;16365;51.598;7.668;2022-07-17T06:53:27;102060.97;;;22.25;37.72
29383;BME280;16365;51.598;7.668;2022-07-17T06:55:53;102045.41;;;22.35;37.53
29383;BME280;16365;51.598;7.668;2022-07-17T06:58:21;102052.44;;;22.44;37.87
29383;BME280;16365;51.598;7.668;2022-07-17T07:00:47;102065.94;;;22.54;37.65
29383;BME280;16365;51.598;7.668;2022-07-17T07:03:16;102057.66;;;22.65;37.43
29383;BME280;16365;51.598;7.668;2022-07-17T07:05:43;102060.63;;;22.76;37.35
29383;BME280;16365;51.598;7.668;2022-07-17T07:08:09;102060.00;;;22.86;37.27
29383;BME280;16365;51.598;7.668;2022-07-17T07:10:36;102068.31;;;22.98;36.93
29383;BME280;16365;51.598;7.668;2022-07-17T07:13:02;102078.16;;;23.08;36.54
29383;BME280;16365;51.598;7.668;2022-07-17T07:15:29;102075.00;;;23.13;36.40
29383;BME280;16365;51.598;7.668;2022-07-17T07:17:55;102072.25;;;23.20;36.76
29383;BME280;16365;51.598;7.668;2022-07-17T07:20:22;102067.16;;;23.29;36.15
29383;BME280;16365;51.598;7.668;2022-07-17T07:22:48;102061.25;;;23.42;36.30
29383;BME280;16365;51.598;7.668;2022-07-17T07:25:15;102057.38;;;23.53;35.89
29383;BME280;16365;51.598;7.668;2022-07-17T07:27:42;102051.09;;;23.67;35.64
29383;BME280;16365;51.598;7.668;2022-07-17T07:30:09;102040.34;;;23.80;35.45
29383;BME280;16365;51.598;7.668;2022-07-17T07:32:38;102026.34;;;23.94;35.64
29383;BME280;16365;51.598;7.668;2022-07-17T07:35:07;102024.47;;;24.09;35.23
29383;BME280;16365;51.598;7.668;2022-07-17T07:37:34;102025.47;;;24.27;35.36
29383;BME280;16365;51.598;7.668;2022-07-17T07:40:00;102007.81;;;24.45;35.10
29383;BME280;16365;51.598;7.668;2022-07-17T07:42:28;102035.13;;;24.64;34.83
29383;BME280;16365;51.598;7.668;2022-07-17T07:44:54;102034.84;;;24.83;34.89
29383;BME280;16365;51.598;7.668;2022-07-17T07:47:21;102037.91;;;25.11;35.62
29383;BME280;16365;51.598;7.668;2022-07-17T07:49:48;102037.31;;;25.50;35.37
29383;BME280;16365;51.598;7.668;2022-07-17T07:52:14;102039.97;;;26.02;35.28
29383;BME280;16365;51.598;7.668;2022-07-17T07:54:41;102033.53;;;26.58;34.75
29383;BME280;16365;51.598;7.668;2022-07-17T07:57:08;102037.16;;;27.20;34.65
29383;BME280;16365;51.598;7.668;2022-07-17T07:59:34;102031.19;;;27.84;33.81
29383;BME280;16365;51.598;7.668;2022-07-17T08:02:01;102041.38;;;28.48;32.60
29383;BME280;16365;51.598;7.668;2022-07-17T08:04:28;102040.03;;;29.11;32.40
29383;BME280;16365;51.598;7.668;2022-07-17T08:06:55;102038.88;;;29.74;31.38
29383;BME280;16365;51.598;7.668;2022-07-17T08:09:22;102038.81;;;30.35;30.61
29383;BME280;16365;51.598;7.668;2022-07-17T08:11:49;102033.81;;;30.89;29.41
29383;BME280;16365;51.598;7.668;2022-07-17T08:14:16;102034.03;;;31.42;28.85
29383;BME280;16365;51.598;7.668;2022-07-17T08:16:43;102041.16;;;31.93;28.52
29383;BME280;16365;51.598;7.668;2022-07-17T08:19:10;102044.09;;;32.42;27.86
29383;BME280;16365;51.598;7.668;2022-07-17T08:21:37;102046.59;;;32.89;26.66
29383;BME280;16365;51.598;7.668;2022-07-17T08:24:04;102054.16;;;33.29;26.04
29383;BME280;16365;51.598;7.668;2022-07-17T08:26:31;102065.09;;;33.63;25.18
29383;BME280;16365;51.598;7.668;2022-07-17T08:28:57;102050.66;;;33.92;24.77
29383;BME280;16365;51.598;7.668;2022-07-17T08:31:24;102062.09;;;34.21;24.16
29383;BME280;16365;51.598;7.668;2022-07-17T08:33:51;102054.25;;;34.47;24.20
29383;BME280;16365;51.598;7.668;2022-07-17T08:36:18;102060.00;;;34.72;24.11
29383;BME280;16365;51.598;7.668;2022-07-17T08:38:44;102067.44;;;34.95;23.28
29383;BME280;16365;51.598;7.668;2022-07-17T08:41:14;102074.66;;;35.13;21.95
29383;BME280;16365;51.598;7.668;2022-07-17T08:43:43;102073.81;;;35.25;22.43
29383;BME280;16365;51.598;7.668;2022-07-17T08:46:11;102073.06;;;35.34;22.16
29383;BME280;16365;51.598;7.668;2022-07-17T08:48:42;102068.63;;;35.42;21.60
29383;BME280;16365;51.598;7.668;2022-07-17T08:51:11;102070.69;;;35.54;21.80
29383;BME280;16365;51.598;7.668;2022-07-17T08:53:38;102070.41;;;35.61;21.71
29383;BME280;16365;51.598;7.668;2022-07-17T08:56:04;102070.59;;;35.67;20.99
29383;BME280;16365;51.598;7.668;2022-07-17T08:58:31;102066.44;;;35.68;20.81
29383;BME280;16365;51.598;7.668;2022-07-17T09:00:58;102069.00;;;35.66;20.54
29383;BME280;16365;51.598;7.668;2022-07-17T09:03:24;102065.44;;;35.62;20.62
29383;BME280;16365;51.598;7.668;2022-07-17T09:05:51;102062.84;;;35.55;20.67
29383;BME280;16365;51.598;7.668;2022-07-17T09:08:21;102060.59;;;35.37;19.63
29383;BME280;16365;51.598;7.668;2022-07-17T09:10:50;102071.44;;;35.11;19.66
29383;BME280;16365;51.598;7.668;2022-07-17T09:16:07;102051.72;;;34.36;19.66
29383;BME280;16365;51.598;7.668;2022-07-17T09:18:48;102060.00;;;33.96;20.58
29383;BME280;16365;51.598;7.668;2022-07-17T09:21:28;102059.00;;;33.61;20.40
29383;BME280;16365;51.598;7.668;2022-07-17T09:23:59;102055.66;;;33.33;20.21
29383;BME280;16365;51.598;7.668;2022-07-17T09:26:27;102048.09;;;33.10;20.53
29383;BME280;16365;51.598;7.668;2022-07-17T09:28:54;102050.31;;;32.90;20.50
29383;BME280;16365;51.598;7.668;2022-07-17T09:31:25;102041.06;;;32.66;20.30
29383;BME280;16365;51.598;7.668;2022-07-17T09:33:52;102047.69;;;32.46;21.21
29383;BME280;16365;51.598;7.668;2022-07-17T09:36:19;102050.53;;;32.30;20.87
29383;BME280;16365;51.598;7.668;2022-07-17T09:38:48;102048.91;;;32.13;21.26
29383;BME280;16365;51.598;7.668;2022-07-17T09:41:17;102051.66;;;32.00;20.81
29383;BME280;16365;51.598;7.668;2022-07-17T09:46:22;102037.91;;;31.71;21.57
29383;BME280;16365;51.598;7.668;2022-07-17T09:48:52;102038.59;;;31.59;21.36
29383;BME280;16365;51.598;7.668;2022-07-17T09:51:23;102035.16;;;31.48;21.30
29383;BME280;16365;51.598;7.668;2022-07-17T09:53:52;102038.69;;;31.36;22.15
29383;BME280;16365;51.598;7.668;2022-07-17T09:56:20;102036.78;;;31.29;21.79
29383;BME280;16365;51.598;7.668;2022-07-17T09:58:50;102031.94;;;31.22;22.18
29383;BME280;16365;51.598;7.668;2022-07-17T10:01:17;102033.19;;;31.21;21.75
29383;BME280;16365;51.598;7.668;2022-07-17T10:03:45;102029.19;;;31.19;22.23
29383;BME280;16365;51.598;7.668;2022-07-17T10:06:15;102030.09;;;31.12;21.86
29383;BME280;16365;51.598;7.668;2022-07-17T10:08:42;102029.44;;;31.05;21.86
29383;BME280;16365;51.598;7.668;2022-07-17T10:11:09;102022.22;;;30.96;22.25
29383;BME280;16365;51.598;7.668;2022-07-17T10:13:39;102032.59;;;30.90;21.91
29383;BME280;16365;51.598;7.668;2022-07-17T10:16:07;102033.00;;;30.89;21.69
29383;BME280;16365;51.598;7.668;2022-07-17T10:18:42;102035.97;;;30.85;21.56
29383;BME280;16365;51.598;7.668;2022-07-17T10:23:35;102043.50;;;30.76;22.12
29383;BME280;16365;51.598;7.668;2022-07-17T10:26:08;102035.31;;;30.74;22.24
29383;BME280;16365;51.598;7.668;2022-07-17T10:28:46;102039.88;;;30.71;22.48
29383;BME280;16365;51.598;7.668;2022-07-17T10:31:27;102045.16;;;30.73;22.25
29383;BME280;16365;51.598;7.668;2022-07-17T10:34:02;102046.72;;;30.78;22.19
29383;BME280;16365;51.598;7.668;2022-07-17T10:36:37;102046.22;;;30.83;22.03
29383;BME280;16365;51.598;7.668;2022-07-17T10:39:14;102042.03;;;30.87;22.06
29383;BME280;16365;51.598;7.668;2022-07-17T10:41:42;102041.47;;;30.96;22.21
29383;BME280;16365;51.598;7.668;2022-07-17T10:44:09;102039.72;;;31.02;22.16
29383;BME280;16365;51.598;7.668;2022-07-17T10:46:35;102039.22;;;31.07;21.88
29383;BME280;16365;51.598;7.668;2022-07-17T10:49:02;102034.28;;;31.08;22.01
29383;BME280;16365;51.598;7.668;2022-07-17T10:51:31;102036.34;;;31.07;21.85
29383;BME280;16365;51.598;7.668;2022-07-17T10:53:59;102036.00;;;31.05;21.55
29383;BME280;16365;51.598;7.668;2022-07-17T10:56:26;102042.59;;;31.02;21.58
29383;BME280;16365;51.598;7.668;2022-07-17T10:58:53;102038.56;;;31.00;21.85
29383;BME280;16365;51.598;7.668;2022-07-17T11:01:28;102036.56;;;30.96;21.98
29383;BME280;16365;51.598;7.668;2022-07-17T11:03:57;102034.13;;;30.95;21.15
29383;BME280;16365;51.598;7.668;2022-07-17T11:06:30;102035.00;;;30.92;20.79
29383;BME280;16365;51.598;7.668;2022-07-17T11:09:04;102030.13;;;30.89;21.32
29383;BME280;16365;51.598;7.668;2022-07-17T11:11:45;102034.69;;;30.86;21.68
29383;BME280;16365;51.598;7.668;2022-07-17T11:14:20;102032.25;;;30.85;21.20
29383;BME280;16365;51.598;7.668;2022-07-17T11:16:50;102027.78;;;30.84;21.15
29383;BME280;16365;51.598;7.668;2022-07-17T11:19:40;102022.13;;;30.80;21.93
29383;BME280;16365;51.598;7.668;2022-07-17T11:22:11;102026.53;;;30.85;21.56
29383;BME280;16365;51.598;7.668;2022-07-17T11:24:43;102023.66;;;30.85;21.65
29383;BME280;16365;51.598;7.668;2022-07-17T11:27:32;102023.19;;;30.90;21.59
29383;BME280;16365;51.598;7.668;2022-07-17T11:29:59;102031.28;;;30.95;21.10
29383;BME280;16365;51.598;7.668;2022-07-17T11:32:36;102028.31;;;30.98;22.01
29383;BME280;16365;51.598;7.668;2022-07-17T11:35:20;102027.09;;;31.00;21.57
29383;BME280;16365;51.598;7.668;2022-07-17T11:38:07;102024.59;;;31.02;21.46
29383;BME280;16365;51.598;7.668;2022-07-17T11:40:33;102021.38;;;31.00;20.92
29383;BME280;16365;51.598;7.668;2022-07-17T11:43:01;102030.31;;;31.02;20.98
29383;BME280;16365;51.598;7.668;2022-07-17T11:45:28;102022.97;;;31.01;20.56
29383;BME280;16365;51.598;7.668;2022-07-17T11:48:01;102020.53;;;30.99;20.46
29383;BME280;16365;51.598;7.668;2022-07-17T11:50:27;102011.88;;;31.03;20.32
29383;BME280;16365;51.598;7.668;2022-07-17T11:53:00;102012.31;;;31.01;20.52
29383;BME280;16365;51.598;7.668;2022-07-17T11:55:37;102024.59;;;31.02;20.44
29383;BME280;16365;51.598;7.668;2022-07-17T11:58:04;102010.13;;;31.09;20.19
29383;BME280;16365;51.598;7.668;2022-07-17T12:00:32;102015.47;;;31.07;19.75
29383;BME280;16365;51.598;7.668;2022-07-17T12:03:05;102013.50;;;31.04;19.82
29383;BME280;16365;51.598;7.668;2022-07-17T12:05:34;102006.94;;;31.03;19.38
29383;BME280;16365;51.598;7.668;2022-07-17T12:11:22;101995.50;;;31.03;19.91
29383;BME280;16365;51.598;7.668;2022-07-17T12:13:49;101995.13;;;31.01;19.98
29383;BME280;16365;51.598;7.668;2022-07-17T12:16:29;102000.47;;;30.99;19.63
29383;BME280;16365;51.598;7.668;2022-07-17T12:21:33;101993.53;;;31.00;19.22
29383;BME280;16365;51.598;7.668;2022-07-17T12:24:04;101981.69;;;30.98;20.48
29383;BME280;16365;51.598;7.668;2022-07-17T12:26:33;101987.88;;;30.96;20.83
29383;BME280;16365;51.598;7.668;2022-07-17T12:29:00;101987.19;;;30.89;20.94
29383;BME280;16365;51.598;7.668;2022-07-17T12:31:27;101987.31;;;30.82;21.87
29383;BME280;16365;51.598;7.668;2022-07-17T12:33:54;101985.03;;;30.73;22.18
29383;BME280;16365;51.598;7.668;2022-07-17T12:36:22;101980.22;;;30.66;22.26
29383;BME280;16365;51.598;7.668;2022-07-17T12:38:50;101968.38;;;30.64;21.33
29383;BME280;16365;51.598;7.668;2022-07-17T12:41:18;101966.78;;;30.63;21.83
29383;BME280;16365;51.598;7.668;2022-07-17T12:43:45;101975.72;;;30.65;21.34
29383;BME280;16365;51.598;7.668;2022-07-17T12:46:13;101975.66;;;30.69;21.68
29383;BME280;16365;51.598;7.668;2022-07-17T12:48:44;101977.25;;;30.74;21.24
29383;BME280;16365;51.598;7.668;2022-07-17T12:51:12;101981.31;;;30.76;21.33
29383;BME280;16365;51.598;7.668;2022-07-17T12:53:40;101969.75;;;30.80;21.12
29383;BME280;16365;51.598;7.668;2022-07-17T12:56:08;101963.97;;;30.83;21.27
29383;BME280;16365;51.598;7.668;2022-07-17T12:58:35;101964.78;;;30.84;21.21
29383;BME280;16365;51.598;7.668;2022-07-17T13:01:04;101972.84;;;30.89;20.99
29383;BME280;16365;51.598;7.668;2022-07-17T13:03:32;101966.25;;;30.92;20.97
29383;BME280;16365;51.598;7.668;2022-07-17T13:06:00;101964.56;;;30.94;20.54
29383;BME280;16365;51.598;7.668;2022-07-17T13:08:28;101959.22;;;30.96;21.82
29383;BME280;16365;51.598;7.668;2022-07-17T13:10:55;101957.91;;;31.01;22.10